sensor_id;sensor_type;location;lat;lon;timestamp;P1;durP1;ratioP1;P2;durP2;ratioP2
30505;SDS011;17292;51.600;4.994;2023-05-07T00:02:00;2.33;;;2.13;;
30505;SDS011;17292;51.600;4.994;2023-05-07T00:04:28;2.30;;;2.20;;
30505;SDS011;17292;51.600;4.994;2023-05-07T00:09:26;2.35;;;2.20;;
30505;SDS011;17292;51.600;4.994;2023-05-07T00:11:52;2.38;;;2.28;;
30505;SDS011;17292;51.600;4.994;2023-05-07T00:14:19;2.20;;;2.00;;
30505;SDS011;17292;51.600;4.994;2023-05-07T00:16:45;2.45;;;2.25;;
30505;SDS011;17292;51.600;4.994;2023-05-07T00:19:11;2.17;;;2.08;;
30505;SDS011;17292;51.600;4.994;2023-05-07T00:21:37;2.33;;;2.20;;
30505;SDS011;17292;51.600;4.994;2023-05-07T00:24:03;2.08;;;1.98;;
30505;SDS011;17292;51.600;4.994;2023-05-07T00:26:30;2.28;;;2.08;;
30505;SDS011;17292;51.600;4.994;2023-05-07T00:28:56;2.25;;;2.15;;
30505;SDS011;17292;51.600;4.994;2023-05-07T00:31:22;2.38;;;2.25;;
30505;SDS011;17292;51.600;4.994;2023-05-07T00:33:48;2.55;;;2.35;;
30505;SDS011;17292;51.600;4.994;2023-05-07T00:36:14;2.28;;;2.17;;
30505;SDS011;17292;51.600;4.994;2023-05-07T00:38:40;2.30;;;2.10;;
30505;SDS011;17292;51.600;4.994;2023-05-07T00:41:06;2.38;;;1.95;;
30505;SDS011;17292;51.600;4.994;2023-05-07T00:43:32;2.28;;;2.10;;
30505;SDS011;17292;51.600;4.994;2023-05-07T00:45:59;2.10;;;2.00;;
30505;SDS011;17292;51.600;4.994;2023-05-07T00:48:25;2.30;;;2.17;;
30505;SDS011;17292;51.600;4.994;2023-05-07T00:50:51;2.63;;;2.42;;
30505;SDS011;17292;51.600;4.994;2023-05-07T00:53:18;2.50;;;2.30;;
30505;SDS011;17292;51.600;4.994;2023-05-07T00:55:44;2.28;;;2.08;;
30505;SDS011;17292;51.600;4.994;2023-05-07T00:58:10;3.40;;;1.90;;
30505;SDS011;17292;51.600;4.994;2023-05-07T01:00:36;2.60;;;2.40;;
30505;SDS011;17292;51.600;4.994;2023-05-07T01:03:02;2.22;;;2.13;;
30505;SDS011;17292;51.600;4.994;2023-05-07T01:05:29;2.22;;;2.08;;
30505;SDS011;17292;51.600;4.994;2023-05-07T01:07:55;3.15;;;2.20;;
30505;SDS011;17292;51.600;4.994;2023-05-07T01:10:22;2.60;;;2.40;;
30505;SDS011;17292;51.600;4.994;2023-05-07T01:12:49;2.30;;;2.20;;
30505;SDS011;17292;51.600;4.994;2023-05-07T01:15:15;2.65;;;2.40;;
30505;SDS011;17292;51.600;4.994;2023-05-07T01:17:42;2.25;;;2.05;;
30505;SDS011;17292;51.600;4.994;2023-05-07T01:20:09;2.20;;;2.10;;
30505;SDS011;17292;51.600;4.994;2023-05-07T01:22:38;2.30;;;2.10;;
30505;SDS011;17292;51.600;4.994;2023-05-07T01:25:05;2.40;;;2.30;;
30505;SDS011;17292;51.600;4.994;2023-05-07T01:27:32;2.38;;;2.17;;
30505;SDS011;17292;51.600;4.994;2023-05-07T01:29:59;2.50;;;2.30;;
30505;SDS011;17292;51.600;4.994;2023-05-07T01:32:42;2.15;;;2.00;;
30505;SDS011;17292;51.600;4.994;2023-05-07T01:35:10;2.20;;;2.03;;
30505;SDS011;17292;51.600;4.994;2023-05-07T01:37:37;3.30;;;2.55;;
30505;SDS011;17292;51.600;4.994;2023-05-07T01:40:03;2.13;;;2.00;;
30505;SDS011;17292;51.600;4.994;2023-05-07T01:42:29;2.40;;;2.20;;
30505;SDS011;17292;51.600;4.994;2023-05-07T01:44:56;2.35;;;2.15;;
30505;SDS011;17292;51.600;4.994;2023-05-07T01:47:22;2.50;;;2.28;;
30505;SDS011;17292;51.600;4.994;2023-05-07T01:49:48;2.40;;;2.20;;
30505;SDS011;17292;51.600;4.994;2023-05-07T01:52:15;2.30;;;2.10;;
30505;SDS011;17292;51.600;4.994;2023-05-07T01:54:41;2.85;;;2.65;;
30505;SDS011;17292;51.600;4.994;2023-05-07T01:57:07;2.30;;;2.10;;
30505;SDS011;17292;51.600;4.994;2023-05-07T01:59:33;2.47;;;2.28;;
30505;SDS011;17292;51.600;4.994;2023-05-07T02:02:00;2.13;;;2.03;;
30505;SDS011;17292;51.600;4.994;2023-05-07T02:04:26;2.60;;;2.40;;
30505;SDS011;17292;51.600;4.994;2023-05-07T02:06:52;2.50;;;2.30;;
30505;SDS011;17292;51.600;4.994;2023-05-07T02:09:18;2.10;;;1.90;;
30505;SDS011;17292;51.600;4.994;2023-05-07T02:11:44;2.50;;;2.30;;
30505;SDS011;17292;51.600;4.994;2023-05-07T02:14:11;2.22;;;2.13;;
30505;SDS011;17292;51.600;4.994;2023-05-07T02:16:37;2.65;;;2.45;;
30505;SDS011;17292;51.600;4.994;2023-05-07T02:19:03;2.55;;;2.38;;
30505;SDS011;17292;51.600;4.994;2023-05-07T02:21:30;2.17;;;2.08;;
30505;SDS011;17292;51.600;4.994;2023-05-07T02:23:56;2.25;;;2.15;;
30505;SDS011;17292;51.600;4.994;2023-05-07T02:26:22;2.20;;;2.00;;
30505;SDS011;17292;51.600;4.994;2023-05-07T02:28:48;2.00;;;1.90;;
30505;SDS011;17292;51.600;4.994;2023-05-07T02:31:14;2.25;;;2.03;;
30505;SDS011;17292;51.600;4.994;2023-05-07T02:33:40;2.40;;;2.30;;
30505;SDS011;17292;51.600;4.994;2023-05-07T02:36:07;2.00;;;1.90;;
30505;SDS011;17292;51.600;4.994;2023-05-07T02:38:34;2.20;;;2.08;;
30505;SDS011;17292;51.600;4.994;2023-05-07T02:41:00;2.08;;;1.88;;
30505;SDS011;17292;51.600;4.994;2023-05-07T02:43:26;2.42;;;2.22;;
30505;SDS011;17292;51.600;4.994;2023-05-07T02:46:02;1.98;;;1.88;;
30505;SDS011;17292;51.600;4.994;2023-05-07T02:48:28;2.08;;;1.98;;
30505;SDS011;17292;51.600;4.994;2023-05-07T02:50:54;2.95;;;2.22;;
30505;SDS011;17292;51.600;4.994;2023-05-07T02:53:20;3.58;;;2.40;;
30505;SDS011;17292;51.600;4.994;2023-05-07T02:55:47;2.10;;;2.00;;
30505;SDS011;17292;51.600;4.994;2023-05-07T02:58:13;2.17;;;2.08;;
30505;SDS011;17292;51.600;4.994;2023-05-07T03:00:39;2.38;;;2.28;;
30505;SDS011;17292;51.600;4.994;2023-05-07T03:03:05;2.22;;;2.10;;
30505;SDS011;17292;51.600;4.994;2023-05-07T03:05:31;2.28;;;2.17;;
30505;SDS011;17292;51.600;4.994;2023-05-07T03:07:57;2.22;;;2.13;;
30505;SDS011;17292;51.600;4.994;2023-05-07T03:10:23;2.08;;;1.98;;
30505;SDS011;17292;51.600;4.994;2023-05-07T03:12:50;2.17;;;2.00;;
30505;SDS011;17292;51.600;4.994;2023-05-07T03:15:16;2.20;;;2.10;;
30505;SDS011;17292;51.600;4.994;2023-05-07T03:17:42;2.55;;;2.35;;
30505;SDS011;17292;51.600;4.994;2023-05-07T03:20:08;2.55;;;2.10;;
30505;SDS011;17292;51.600;4.994;2023-05-07T03:22:34;2.95;;;2.10;;
30505;SDS011;17292;51.600;4.994;2023-05-07T03:25:01;2.30;;;2.17;;
30505;SDS011;17292;51.600;4.994;2023-05-07T03:27:27;2.42;;;2.33;;
30505;SDS011;17292;51.600;4.994;2023-05-07T03:29:53;2.42;;;2.22;;
30505;SDS011;17292;51.600;4.994;2023-05-07T03:32:19;2.50;;;2.30;;
30505;SDS011;17292;51.600;4.994;2023-05-07T03:34:45;2.35;;;2.15;;
30505;SDS011;17292;51.600;4.994;2023-05-07T03:37:11;1.95;;;1.85;;
30505;SDS011;17292;51.600;4.994;2023-05-07T03:39:37;2.75;;;2.00;;
30505;SDS011;17292;51.600;4.994;2023-05-07T03:42:03;2.20;;;2.00;;
30505;SDS011;17292;51.600;4.994;2023-05-07T03:44:30;2.38;;;2.17;;
30505;SDS011;17292;51.600;4.994;2023-05-07T03:46:56;2.20;;;2.10;;
30505;SDS011;17292;51.600;4.994;2023-05-07T03:49:22;2.22;;;2.10;;
30505;SDS011;17292;51.600;4.994;2023-05-07T03:51:48;2.33;;;2.20;;
30505;SDS011;17292;51.600;4.994;2023-05-07T03:54:14;2.38;;;2.17;;
30505;SDS011;17292;51.600;4.994;2023-05-07T03:56:40;2.38;;;2.28;;
30505;SDS011;17292;51.600;4.994;2023-05-07T03:59:06;1.95;;;1.85;;
30505;SDS011;17292;51.600;4.994;2023-05-07T04:01:32;2.95;;;2.00;;
30505;SDS011;17292;51.600;4.994;2023-05-07T04:03:58;2.15;;;2.05;;
30505;SDS011;17292;51.600;4.994;2023-05-07T04:06:24;2.45;;;2.25;;
30505;SDS011;17292;51.600;4.994;2023-05-07T04:08:51;3.17;;;2.38;;
30505;SDS011;17292;51.600;4.994;2023-05-07T04:11:17;1.85;;;1.70;;
30505;SDS011;17292;51.600;4.994;2023-05-07T04:13:43;2.20;;;2.10;;
30505;SDS011;17292;51.600;4.994;2023-05-07T04:16:09;2.45;;;2.28;;
30505;SDS011;17292;51.600;4.994;2023-05-07T04:18:35;2.30;;;2.08;;
30505;SDS011;17292;51.600;4.994;2023-05-07T04:21:01;2.13;;;2.03;;
30505;SDS011;17292;51.600;4.994;2023-05-07T04:23:27;2.28;;;2.17;;
30505;SDS011;17292;51.600;4.994;2023-05-07T04:25:53;2.22;;;2.03;;
30505;SDS011;17292;51.600;4.994;2023-05-07T04:28:20;1.80;;;1.70;;
30505;SDS011;17292;51.600;4.994;2023-05-07T04:30:46;1.80;;;1.70;;
30505;SDS011;17292;51.600;4.994;2023-05-07T04:33:13;2.35;;;2.15;;
30505;SDS011;17292;51.600;4.994;2023-05-07T04:35:42;2.00;;;1.90;;
30505;SDS011;17292;51.600;4.994;2023-05-07T04:38:08;2.03;;;1.92;;
30505;SDS011;17292;51.600;4.994;2023-05-07T04:40:35;2.10;;;2.00;;
30505;SDS011;17292;51.600;4.994;2023-05-07T04:43:02;2.08;;;1.98;;
30505;SDS011;17292;51.600;4.994;2023-05-07T04:45:28;2.40;;;2.20;;
30505;SDS011;17292;51.600;4.994;2023-05-07T04:47:54;1.80;;;1.70;;
30505;SDS011;17292;51.600;4.994;2023-05-07T04:50:20;2.03;;;1.77;;
30505;SDS011;17292;51.600;4.994;2023-05-07T04:52:48;2.22;;;2.10;;
30505;SDS011;17292;51.600;4.994;2023-05-07T04:55:15;2.30;;;2.20;;
30505;SDS011;17292;51.600;4.994;2023-05-07T04:57:41;2.08;;;1.90;;
30505;SDS011;17292;51.600;4.994;2023-05-07T05:00:07;1.90;;;1.80;;
30505;SDS011;17292;51.600;4.994;2023-05-07T05:02:34;2.03;;;1.92;;
30505;SDS011;17292;51.600;4.994;2023-05-07T05:05:00;2.30;;;2.10;;
30505;SDS011;17292;51.600;4.994;2023-05-07T05:07:30;1.90;;;1.80;;
30505;SDS011;17292;51.600;4.994;2023-05-07T05:09:56;2.10;;;1.90;;
30505;SDS011;17292;51.600;4.994;2023-05-07T05:12:22;2.03;;;1.92;;
30505;SDS011;17292;51.600;4.994;2023-05-07T05:14:48;1.95;;;1.85;;
30505;SDS011;17292;51.600;4.994;2023-05-07T05:17:15;2.20;;;2.10;;
30505;SDS011;17292;51.600;4.994;2023-05-07T05:19:41;2.10;;;2.00;;
30505;SDS011;17292;51.600;4.994;2023-05-07T05:22:07;2.50;;;2.30;;
30505;SDS011;17292;51.600;4.994;2023-05-07T05:24:33;2.22;;;2.05;;
30505;SDS011;17292;51.600;4.994;2023-05-07T05:26:59;2.05;;;1.95;;
30505;SDS011;17292;51.600;4.994;2023-05-07T05:29:27;2.40;;;2.22;;
30505;SDS011;17292;51.600;4.994;2023-05-07T05:31:53;2.28;;;2.13;;
30505;SDS011;17292;51.600;4.994;2023-05-07T05:34:19;2.10;;;2.00;;
30505;SDS011;17292;51.600;4.994;2023-05-07T05:36:45;2.15;;;1.95;;
30505;SDS011;17292;51.600;4.994;2023-05-07T05:39:11;2.20;;;2.10;;
30505;SDS011;17292;51.600;4.994;2023-05-07T05:41:37;2.80;;;2.08;;
30505;SDS011;17292;51.600;4.994;2023-05-07T05:44:03;2.50;;;2.30;;
30505;SDS011;17292;51.600;4.994;2023-05-07T05:46:30;2.33;;;1.98;;
30505;SDS011;17292;51.600;4.994;2023-05-07T05:48:56;2.22;;;2.08;;
30505;SDS011;17292;51.600;4.994;2023-05-07T05:51:22;2.25;;;2.15;;
30505;SDS011;17292;51.600;4.994;2023-05-07T05:53:48;2.10;;;2.00;;
30505;SDS011;17292;51.600;4.994;2023-05-07T05:56:15;2.40;;;2.20;;
30505;SDS011;17292;51.600;4.994;2023-05-07T05:58:41;3.60;;;1.88;;
30505;SDS011;17292;51.600;4.994;2023-05-07T06:01:07;2.47;;;2.28;;
30505;SDS011;17292;51.600;4.994;2023-05-07T06:03:34;2.25;;;2.15;;
30505;SDS011;17292;51.600;4.994;2023-05-07T06:06:00;1.98;;;1.88;;
30505;SDS011;17292;51.600;4.994;2023-05-07T06:08:29;2.40;;;2.20;;
30505;SDS011;17292;51.600;4.994;2023-05-07T06:10:55;2.30;;;2.10;;
30505;SDS011;17292;51.600;4.994;2023-05-07T06:13:22;2.25;;;2.05;;
30505;SDS011;17292;51.600;4.994;2023-05-07T06:15:48;2.10;;;2.00;;
30505;SDS011;17292;51.600;4.994;2023-05-07T06:18:15;1.92;;;1.83;;
30505;SDS011;17292;51.600;4.994;2023-05-07T06:20:41;2.00;;;1.90;;
30505;SDS011;17292;51.600;4.994;2023-05-07T06:23:07;2.10;;;1.95;;
30505;SDS011;17292;51.600;4.994;2023-05-07T06:25:33;2.30;;;1.90;;
30505;SDS011;17292;51.600;4.994;2023-05-07T06:27:59;2.45;;;2.25;;
30505;SDS011;17292;51.600;4.994;2023-05-07T06:30:25;2.25;;;2.15;;
30505;SDS011;17292;51.600;4.994;2023-05-07T06:32:51;2.38;;;2.17;;
30505;SDS011;17292;51.600;4.994;2023-05-07T06:35:18;2.15;;;2.05;;
30505;SDS011;17292;51.600;4.994;2023-05-07T06:37:44;2.03;;;1.92;;
30505;SDS011;17292;51.600;4.994;2023-05-07T06:40:10;2.20;;;2.00;;
30505;SDS011;17292;51.600;4.994;2023-05-07T06:42:36;1.80;;;1.70;;
30505;SDS011;17292;51.600;4.994;2023-05-07T06:45:03;1.88;;;1.77;;
30505;SDS011;17292;51.600;4.994;2023-05-07T06:47:29;2.03;;;1.90;;
30505;SDS011;17292;51.600;4.994;2023-05-07T06:49:56;2.97;;;2.20;;
30505;SDS011;17292;51.600;4.994;2023-05-07T06:52:22;2.13;;;2.00;;
30505;SDS011;17292;51.600;4.994;2023-05-07T06:54:48;2.20;;;2.10;;
30505;SDS011;17292;51.600;4.994;2023-05-07T06:57:14;2.00;;;1.90;;
30505;SDS011;17292;51.600;4.994;2023-05-07T06:59:40;2.05;;;1.95;;
30505;SDS011;17292;51.600;4.994;2023-05-07T07:02:06;2.20;;;2.10;;
30505;SDS011;17292;51.600;4.994;2023-05-07T07:04:33;2.03;;;1.92;;
30505;SDS011;17292;51.600;4.994;2023-05-07T07:06:59;2.30;;;2.10;;
30505;SDS011;17292;51.600;4.994;2023-05-07T07:09:26;2.10;;;1.95;;
30505;SDS011;17292;51.600;4.994;2023-05-07T07:11:52;2.25;;;2.08;;
30505;SDS011;17292;51.600;4.994;2023-05-07T07:14:18;2.15;;;1.95;;
30505;SDS011;17292;51.600;4.994;2023-05-07T07:16:45;2.15;;;2.00;;
30505;SDS011;17292;51.600;4.994;2023-05-07T07:19:12;2.15;;;1.95;;
30505;SDS011;17292;51.600;4.994;2023-05-07T07:21:40;1.92;;;1.83;;
30505;SDS011;17292;51.600;4.994;2023-05-07T07:24:06;2.10;;;2.00;;
30505;SDS011;17292;51.600;4.994;2023-05-07T07:26:32;1.92;;;1.83;;
30505;SDS011;17292;51.600;4.994;2023-05-07T07:28:58;1.90;;;1.80;;
30505;SDS011;17292;51.600;4.994;2023-05-07T07:31:24;1.80;;;1.70;;
30505;SDS011;17292;51.600;4.994;2023-05-07T07:33:50;1.92;;;1.80;;
30505;SDS011;17292;51.600;4.994;2023-05-07T07:36:16;1.88;;;1.77;;
30505;SDS011;17292;51.600;4.994;2023-05-07T07:38:43;2.03;;;1.92;;
30505;SDS011;17292;51.600;4.994;2023-05-07T07:41:09;2.10;;;1.90;;
30505;SDS011;17292;51.600;4.994;2023-05-07T07:43:35;1.98;;;1.75;;
30505;SDS011;17292;51.600;4.994;2023-05-07T07:46:01;2.25;;;2.03;;
30505;SDS011;17292;51.600;4.994;2023-05-07T07:48:27;2.08;;;1.98;;
30505;SDS011;17292;51.600;4.994;2023-05-07T07:50:53;2.03;;;1.92;;
30505;SDS011;17292;51.600;4.994;2023-05-07T07:53:19;1.85;;;1.75;;
30505;SDS011;17292;51.600;4.994;2023-05-07T07:55:46;2.05;;;1.85;;
30505;SDS011;17292;51.600;4.994;2023-05-07T07:58:12;1.88;;;1.77;;
30505;SDS011;17292;51.600;4.994;2023-05-07T08:00:38;2.83;;;1.80;;
30505;SDS011;17292;51.600;4.994;2023-05-07T08:03:04;3.67;;;1.73;;
30505;SDS011;17292;51.600;4.994;2023-05-07T08:05:32;2.03;;;1.92;;
30505;SDS011;17292;51.600;4.994;2023-05-07T08:07:58;1.77;;;1.67;;
30505;SDS011;17292;51.600;4.994;2023-05-07T08:10:24;1.90;;;1.80;;
30505;SDS011;17292;51.600;4.994;2023-05-07T08:12:50;1.80;;;1.70;;
30505;SDS011;17292;51.600;4.994;2023-05-07T08:15:16;1.83;;;1.70;;
30505;SDS011;17292;51.600;4.994;2023-05-07T08:17:43;1.92;;;1.83;;
30505;SDS011;17292;51.600;4.994;2023-05-07T08:20:09;1.73;;;1.63;;
30505;SDS011;17292;51.600;4.994;2023-05-07T08:22:35;2.00;;;1.90;;
30505;SDS011;17292;51.600;4.994;2023-05-07T08:25:02;1.77;;;1.67;;
30505;SDS011;17292;51.600;4.994;2023-05-07T08:27:28;2.22;;;2.03;;
30505;SDS011;17292;51.600;4.994;2023-05-07T08:29:54;1.90;;;1.80;;
30505;SDS011;17292;51.600;4.994;2023-05-07T08:32:21;1.90;;;1.80;;
30505;SDS011;17292;51.600;4.994;2023-05-07T08:34:47;2.00;;;1.80;;
30505;SDS011;17292;51.600;4.994;2023-05-07T08:37:13;2.15;;;1.85;;
30505;SDS011;17292;51.600;4.994;2023-05-07T08:39:39;2.38;;;2.17;;
30505;SDS011;17292;51.600;4.994;2023-05-07T08:42:05;1.60;;;1.50;;
30505;SDS011;17292;51.600;4.994;2023-05-07T08:44:35;1.85;;;1.75;;
30505;SDS011;17292;51.600;4.994;2023-05-07T08:47:03;1.80;;;1.70;;
30505;SDS011;17292;51.600;4.994;2023-05-07T08:49:33;1.77;;;1.67;;
30505;SDS011;17292;51.600;4.994;2023-05-07T08:51:59;2.00;;;1.70;;
30505;SDS011;17292;51.600;4.994;2023-05-07T08:54:25;1.70;;;1.60;;
30505;SDS011;17292;51.600;4.994;2023-05-07T08:56:52;2.00;;;1.90;;
30505;SDS011;17292;51.600;4.994;2023-05-07T08:59:18;2.00;;;1.90;;
30505;SDS011;17292;51.600;4.994;2023-05-07T09:01:44;2.10;;;2.00;;
30505;SDS011;17292;51.600;4.994;2023-05-07T09:04:10;1.98;;;1.88;;
30505;SDS011;17292;51.600;4.994;2023-05-07T09:06:37;1.80;;;1.70;;
30505;SDS011;17292;51.600;4.994;2023-05-07T09:09:06;1.80;;;1.70;;
30505;SDS011;17292;51.600;4.994;2023-05-07T09:11:33;1.63;;;1.52;;
30505;SDS011;17292;51.600;4.994;2023-05-07T09:13:59;2.00;;;1.90;;
30505;SDS011;17292;51.600;4.994;2023-05-07T09:16:28;1.90;;;1.80;;
30505;SDS011;17292;51.600;4.994;2023-05-07T09:18:57;1.70;;;1.60;;
30505;SDS011;17292;51.600;4.994;2023-05-07T09:21:23;2.05;;;1.95;;
30505;SDS011;17292;51.600;4.994;2023-05-07T09:23:53;2.00;;;1.90;;
30505;SDS011;17292;51.600;4.994;2023-05-07T09:26:22;1.80;;;1.70;;
30505;SDS011;17292;51.600;4.994;2023-05-07T09:28:49;1.73;;;1.63;;
30505;SDS011;17292;51.600;4.994;2023-05-07T09:31:15;2.00;;;1.80;;
30505;SDS011;17292;51.600;4.994;2023-05-07T09:33:41;2.13;;;1.95;;
30505;SDS011;17292;51.600;4.994;2023-05-07T09:36:08;1.92;;;1.83;;
30505;SDS011;17292;51.600;4.994;2023-05-07T09:38:35;1.70;;;1.60;;
30505;SDS011;17292;51.600;4.994;2023-05-07T09:41:05;1.90;;;1.80;;
30505;SDS011;17292;51.600;4.994;2023-05-07T09:43:33;1.73;;;1.63;;
30505;SDS011;17292;51.600;4.994;2023-05-07T09:46:03;1.75;;;1.65;;
30505;SDS011;17292;51.600;4.994;2023-05-07T09:48:31;1.70;;;1.60;;
30505;SDS011;17292;51.600;4.994;2023-05-07T09:50:58;1.80;;;1.70;;
30505;SDS011;17292;51.600;4.994;2023-05-07T09:53:28;1.80;;;1.70;;
30505;SDS011;17292;51.600;4.994;2023-05-07T09:55:55;1.70;;;1.60;;
30505;SDS011;17292;51.600;4.994;2023-05-07T09:58:22;1.70;;;1.60;;
30505;SDS011;17292;51.600;4.994;2023-05-07T10:00:49;1.90;;;1.80;;
30505;SDS011;17292;51.600;4.994;2023-05-07T10:03:16;2.00;;;1.90;;
30505;SDS011;17292;51.600;4.994;2023-05-07T10:05:44;1.63;;;1.52;;
30505;SDS011;17292;51.600;4.994;2023-05-07T10:08:12;1.73;;;1.63;;
30505;SDS011;17292;51.600;4.994;2023-05-07T10:10:39;2.00;;;1.90;;
30505;SDS011;17292;51.600;4.994;2023-05-07T10:13:06;1.80;;;1.70;;
30505;SDS011;17292;51.600;4.994;2023-05-07T10:15:35;1.80;;;1.67;;
30505;SDS011;17292;51.600;4.994;2023-05-07T10:18:03;1.63;;;1.52;;
30505;SDS011;17292;51.600;4.994;2023-05-07T10:20:29;1.65;;;1.55;;
30505;SDS011;17292;51.600;4.994;2023-05-07T10:22:55;1.88;;;1.77;;
30505;SDS011;17292;51.600;4.994;2023-05-07T10:25:28;1.80;;;1.70;;
30505;SDS011;17292;51.600;4.994;2023-05-07T10:27:56;2.38;;;1.60;;
30505;SDS011;17292;51.600;4.994;2023-05-07T10:33:01;2.60;;;1.60;;
30505;SDS011;17292;51.600;4.994;2023-05-07T10:35:31;1.98;;;1.88;;
30505;SDS011;17292;51.600;4.994;2023-05-07T10:37:58;1.85;;;1.75;;
30505;SDS011;17292;51.600;4.994;2023-05-07T10:40:24;1.83;;;1.73;;
30505;SDS011;17292;51.600;4.994;2023-05-07T10:45:20;1.67;;;1.58;;
30505;SDS011;17292;51.600;4.994;2023-05-07T10:50:31;1.80;;;1.70;;
30505;SDS011;17292;51.600;4.994;2023-05-07T10:55:42;1.70;;;1.60;;
30505;SDS011;17292;51.600;4.994;2023-05-07T11:00:47;1.80;;;1.70;;
30505;SDS011;17292;51.600;4.994;2023-05-07T11:03:13;2.05;;;1.95;;
30505;SDS011;17292;51.600;4.994;2023-05-07T11:05:40;1.80;;;1.70;;
30505;SDS011;17292;51.600;4.994;2023-05-07T11:08:07;1.75;;;1.65;;
30505;SDS011;17292;51.600;4.994;2023-05-07T11:10:53;2.00;;;1.90;;
30505;SDS011;17292;51.600;4.994;2023-05-07T11:16:04;1.67;;;1.58;;
30505;SDS011;17292;51.600;4.994;2023-05-07T11:18:47;1.80;;;1.70;;
30505;SDS011;17292;51.600;4.994;2023-05-07T11:21:25;1.73;;;1.63;;
30505;SDS011;17292;51.600;4.994;2023-05-07T11:23:57;2.20;;;2.00;;
30505;SDS011;17292;51.600;4.994;2023-05-07T11:26:23;1.75;;;1.65;;
30505;SDS011;17292;51.600;4.994;2023-05-07T11:28:50;1.77;;;1.67;;
30505;SDS011;17292;51.600;4.994;2023-05-07T11:31:20;2.00;;;1.90;;
30505;SDS011;17292;51.600;4.994;2023-05-07T11:33:47;1.88;;;1.77;;
30505;SDS011;17292;51.600;4.994;2023-05-07T11:36:14;1.98;;;1.88;;
30505;SDS011;17292;51.600;4.994;2023-05-07T11:38:40;1.70;;;1.60;;
30505;SDS011;17292;51.600;4.994;2023-05-07T11:41:06;1.75;;;1.65;;
30505;SDS011;17292;51.600;4.994;2023-05-07T11:43:33;1.70;;;1.60;;
30505;SDS011;17292;51.600;4.994;2023-05-07T11:48:32;1.83;;;1.73;;
30505;SDS011;17292;51.600;4.994;2023-05-07T11:53:25;1.63;;;1.52;;
30505;SDS011;17292;51.600;4.994;2023-05-07T11:55:52;1.80;;;1.70;;
30505;SDS011;17292;51.600;4.994;2023-05-07T11:58:22;1.90;;;1.80;;
30505;SDS011;17292;51.600;4.994;2023-05-07T12:00:51;2.10;;;1.90;;
30505;SDS011;17292;51.600;4.994;2023-05-07T12:03:18;1.77;;;1.67;;
30505;SDS011;17292;51.600;4.994;2023-05-07T12:05:45;1.80;;;1.70;;
30505;SDS011;17292;51.600;4.994;2023-05-07T12:08:17;2.13;;;1.77;;
30505;SDS011;17292;51.600;4.994;2023-05-07T12:10:44;1.70;;;1.60;;
30505;SDS011;17292;51.600;4.994;2023-05-07T12:18:08;1.70;;;1.60;;
30505;SDS011;17292;51.600;4.994;2023-05-07T12:20:35;1.85;;;1.70;;
30505;SDS011;17292;51.600;4.994;2023-05-07T12:23:02;1.70;;;1.60;;
30505;SDS011;17292;51.600;4.994;2023-05-07T12:25:31;2.20;;;1.60;;
30505;SDS011;17292;51.600;4.994;2023-05-07T12:27:59;1.70;;;1.60;;
30505;SDS011;17292;51.600;4.994;2023-05-07T12:30:26;1.90;;;1.80;;
30505;SDS011;17292;51.600;4.994;2023-05-07T12:32:52;1.70;;;1.60;;
30505;SDS011;17292;51.600;4.994;2023-05-07T12:35:26;1.67;;;1.58;;
30505;SDS011;17292;51.600;4.994;2023-05-07T12:37:58;1.77;;;1.67;;
30505;SDS011;17292;51.600;4.994;2023-05-07T12:40:39;1.80;;;1.70;;
30505;SDS011;17292;51.600;4.994;2023-05-07T12:43:05;1.88;;;1.77;;
30505;SDS011;17292;51.600;4.994;2023-05-07T12:45:31;1.88;;;1.75;;
30505;SDS011;17292;51.600;4.994;2023-05-07T12:48:02;1.98;;;1.67;;
30505;SDS011;17292;51.600;4.994;2023-05-07T12:50:32;1.70;;;1.60;;
30505;SDS011;17292;51.600;4.994;2023-05-07T12:52:58;1.77;;;1.67;;
30505;SDS011;17292;51.600;4.994;2023-05-07T12:55:25;1.60;;;1.50;;
30505;SDS011;17292;51.600;4.994;2023-05-07T12:57:51;2.15;;;1.77;;
30505;SDS011;17292;51.600;4.994;2023-05-07T13:00:39;1.92;;;1.75;;
30505;SDS011;17292;51.600;4.994;2023-05-07T13:03:05;1.67;;;1.58;;
30505;SDS011;17292;51.600;4.994;2023-05-07T13:05:31;1.73;;;1.63;;
30505;SDS011;17292;51.600;4.994;2023-05-07T13:07:58;1.80;;;1.70;;
30505;SDS011;17292;51.600;4.994;2023-05-07T13:10:25;1.70;;;1.60;;
30505;SDS011;17292;51.600;4.994;2023-05-07T13:12:51;1.67;;;1.58;;
30505;SDS011;17292;51.600;4.994;2023-05-07T13:15:19;2.00;;;1.90;;
30505;SDS011;17292;51.600;4.994;2023-05-07T13:17:45;1.48;;;1.45;;
30505;SDS011;17292;51.600;4.994;2023-05-07T13:20:12;1.80;;;1.70;;
30505;SDS011;17292;51.600;4.994;2023-05-07T13:22:38;1.92;;;1.83;;
30505;SDS011;17292;51.600;4.994;2023-05-07T13:25:05;1.73;;;1.63;;
30505;SDS011;17292;51.600;4.994;2023-05-07T13:27:31;1.90;;;1.80;;
30505;SDS011;17292;51.600;4.994;2023-05-07T13:30:00;1.52;;;1.42;;
30505;SDS011;17292;51.600;4.994;2023-05-07T13:32:26;1.48;;;1.38;;
30505;SDS011;17292;51.600;4.994;2023-05-07T13:34:53;1.88;;;1.77;;
30505;SDS011;17292;51.600;4.994;2023-05-07T13:37:19;2.00;;;1.90;;
30505;SDS011;17292;51.600;4.994;2023-05-07T13:39:45;1.65;;;1.55;;
30505;SDS011;17292;51.600;4.994;2023-05-07T13:42:11;1.70;;;1.60;;
30505;SDS011;17292;51.600;4.994;2023-05-07T13:44:37;1.73;;;1.63;;
30505;SDS011;17292;51.600;4.994;2023-05-07T13:47:03;1.88;;;1.77;;
30505;SDS011;17292;51.600;4.994;2023-05-07T13:49:29;1.67;;;1.58;;
30505;SDS011;17292;51.600;4.994;2023-05-07T13:51:56;2.30;;;2.10;;
30505;SDS011;17292;51.600;4.994;2023-05-07T13:54:22;1.90;;;1.80;;
30505;SDS011;17292;51.600;4.994;2023-05-07T13:56:48;2.10;;;1.92;;
30505;SDS011;17292;51.600;4.994;2023-05-07T13:59:14;1.98;;;1.88;;
30505;SDS011;17292;51.600;4.994;2023-05-07T14:01:40;1.90;;;1.80;;
30505;SDS011;17292;51.600;4.994;2023-05-07T14:04:06;1.75;;;1.65;;
30505;SDS011;17292;51.600;4.994;2023-05-07T14:06:32;1.90;;;1.80;;
30505;SDS011;17292;51.600;4.994;2023-05-07T14:08:59;1.92;;;1.70;;
30505;SDS011;17292;51.600;4.994;2023-05-07T14:11:25;1.83;;;1.73;;
30505;SDS011;17292;51.600;4.994;2023-05-07T14:13:52;1.90;;;1.80;;
30505;SDS011;17292;51.600;4.994;2023-05-07T14:16:18;1.80;;;1.70;;
30505;SDS011;17292;51.600;4.994;2023-05-07T14:18:44;1.88;;;1.77;;
30505;SDS011;17292;51.600;4.994;2023-05-07T14:21:10;1.70;;;1.60;;
30505;SDS011;17292;51.600;4.994;2023-05-07T14:23:37;1.85;;;1.75;;
30505;SDS011;17292;51.600;4.994;2023-05-07T14:26:03;1.60;;;1.50;;
30505;SDS011;17292;51.600;4.994;2023-05-07T14:28:29;1.70;;;1.60;;
30505;SDS011;17292;51.600;4.994;2023-05-07T14:30:56;1.63;;;1.52;;
30505;SDS011;17292;51.600;4.994;2023-05-07T14:33:22;1.75;;;1.65;;
30505;SDS011;17292;51.600;4.994;2023-05-07T14:35:48;2.10;;;2.00;;
30505;SDS011;17292;51.600;4.994;2023-05-07T14:38:15;1.73;;;1.63;;
30505;SDS011;17292;51.600;4.994;2023-05-07T14:40:41;1.70;;;1.60;;
30505;SDS011;17292;51.600;4.994;2023-05-07T14:43:07;1.90;;;1.70;;
30505;SDS011;17292;51.600;4.994;2023-05-07T14:45:33;1.80;;;1.70;;
30505;SDS011;17292;51.600;4.994;2023-05-07T14:47:59;2.00;;;1.52;;
30505;SDS011;17292;51.600;4.994;2023-05-07T14:50:26;1.60;;;1.50;;
30505;SDS011;17292;51.600;4.994;2023-05-07T14:52:52;2.00;;;1.90;;
30505;SDS011;17292;51.600;4.994;2023-05-07T14:55:18;1.65;;;1.55;;
30505;SDS011;17292;51.600;4.994;2023-05-07T14:57:44;1.70;;;1.60;;
30505;SDS011;17292;51.600;4.994;2023-05-07T15:00:10;1.90;;;1.80;;
30505;SDS011;17292;51.600;4.994;2023-05-07T15:02:36;1.70;;;1.60;;
30505;SDS011;17292;51.600;4.994;2023-05-07T15:05:03;1.50;;;1.40;;
30505;SDS011;17292;51.600;4.994;2023-05-07T15:07:29;1.80;;;1.70;;
30505;SDS011;17292;51.600;4.994;2023-05-07T15:09:57;1.65;;;1.55;;
30505;SDS011;17292;51.600;4.994;2023-05-07T15:12:23;1.60;;;1.50;;
30505;SDS011;17292;51.600;4.994;2023-05-07T15:14:49;1.83;;;1.73;;